Time;durP1;ratioP1;P1;durP2;ratioP2;P2;SDS_P1;SDS_P2;PMS_P1;PMS_P2;Temp;Humidity;BMP_temperature;BMP_pressure;BME280_temperature;BME280_humidity;BME280_pressure;Samples;Min_cycle;Max_cycle;Signal;HPM_P1;HPM_P2
2023/05/02 00:00:21;;;;;;;22.65;18.33;;;;;;;12.99;100.00;101897.94;5261723;28;20032;-68
2023/05/02 00:02:53;;;;;;;21.38;17.40;;;;;;;13.05;100.00;101896.63;5266147;28;20111;-69
2023/05/02 00:05:25;;;;;;;23.85;18.67;;;;;;;13.01;100.00;101909.19;5262688;28;20036;-70
2023/05/02 00:07:56;;;;;;;23.17;18.40;;;;;;;12.99;100.00;101911.09;5260983;28;20085;-69
2023/05/02 00:10:27;;;;;;;21.10;18.08;;;;;;;12.99;100.00;101915.53;5264303;28;20470;-69
2023/05/02 00:12:59;;;;;;;24.05;19.38;;;;;;;12.94;100.00;101913.25;5266181;28;20501;-69
2023/05/02 00:15:30;;;;;;;21.80;19.05;;;;;;;12.91;100.00;101911.69;5261831;28;20028;-69
2023/05/02 00:18:01;;;;;;;22.25;18.95;;;;;;;12.98;100.00;101927.00;5265924;28;20024;-69
2023/05/02 00:20:32;;;;;;;23.08;19.40;;;;;;;12.96;100.00;101924.50;5261840;28;20394;-69
2023/05/02 00:23:04;;;;;;;24.40;18.58;;;;;;;12.99;100.00;101924.25;5261479;28;20392;-69
2023/05/02 00:25:35;;;;;;;22.05;18.33;;;;;;;12.98;100.00;101932.28;5263508;28;20469;-69
2023/05/02 00:28:06;;;;;;;23.92;19.20;;;;;;;12.87;100.00;101917.31;5265210;28;20401;-69
2023/05/02 00:30:44;;;;;;;23.25;18.20;;;;;;;13.04;100.00;101937.91;5260028;28;20139;-69
2023/05/02 00:33:15;;;;;;;24.38;19.65;;;;;;;12.89;100.00;101937.28;5258787;28;20055;-68
2023/05/02 00:35:46;;;;;;;24.70;19.00;;;;;;;12.89;100.00;101934.66;5264354;28;20612;-69
2023/05/02 00:38:18;;;;;;;22.52;17.20;;;;;;;12.89;100.00;101939.09;5263277;28;20028;-69
2023/05/02 00:40:51;;;;;;;23.75;18.67;;;;;;;12.88;100.00;101933.00;5263190;28;20059;-69
2023/05/02 00:43:22;;;;;;;20.60;16.90;;;;;;;12.87;100.00;101939.19;5264573;28;20017;-69
2023/05/02 00:45:54;;;;;;;21.42;16.75;;;;;;;12.90;100.00;101932.88;5264964;28;20039;-69
2023/05/02 00:48:25;;;;;;;20.10;16.15;;;;;;;12.85;100.00;101935.84;5265297;28;20150;-69
2023/05/02 00:50:57;;;;;;;21.25;16.95;;;;;;;12.83;100.00;101945.63;5248789;28;20037;-68
2023/05/02 00:53:28;;;;;;;18.17;14.85;;;;;;;12.82;100.00;101943.97;5261543;28;20048;-70
2023/05/02 00:56:01;;;;;;;18.27;13.75;;;;;;;12.85;100.00;101943.75;5259508;28;20028;-69
2023/05/02 00:58:33;;;;;;;19.25;14.60;;;;;;;12.83;100.00;101944.81;5267337;28;20052;-69
2023/05/02 01:01:40;;;;;;;17.13;14.23;;;;;;;13.03;100.00;101943.25;5267880;28;20513;-69
2023/05/02 01:04:49;;;;;;;16.45;14.02;;;;;;;13.03;100.00;101940.63;5267464;28;20028;-69
2023/05/02 01:07:50;;;;;;;16.42;13.60;;;;;;;12.89;100.00;101947.81;5268515;28;20901;-69
2023/05/02 01:10:51;;;;;;;17.65;13.15;;;;;;;12.97;100.00;101935.88;5268027;28;20024;-69
2023/05/02 01:13:27;;;;;;;17.00;12.80;;;;;;;12.65;100.00;101950.53;5265261;28;20039;-69
2023/05/02 01:16:00;;;;;;;17.00;12.57;;;;;;;12.48;100.00;101950.97;5269783;28;20028;-69
2023/05/02 01:18:35;;;;;;;13.32;11.05;;;;;;;12.45;100.00;101950.34;5268537;28;20032;-69
2023/05/02 01:21:08;;;;;;;12.15;10.75;;;;;;;12.34;100.00;101956.41;5266248;28;20158;-69
2023/05/02 01:24:06;;;;;;;12.93;9.98;;;;;;;12.53;100.00;101953.22;5267887;28;21489;-69
2023/05/02 01:26:58;;;;;;;13.50;10.00;;;;;;;12.46;100.00;101947.59;5266454;28;20028;-69
2023/05/02 01:29:32;;;;;;;12.98;10.50;;;;;;;12.29;100.00;101943.63;5264654;28;20035;-69
2023/05/02 01:32:06;;;;;;;11.75;9.85;;;;;;;12.25;100.00;101936.09;5265681;28;20496;-69
2023/05/02 01:34:40;;;;;;;13.00;9.90;;;;;;;12.35;100.00;101948.41;5264802;28;20074;-69
2023/05/02 01:37:13;;;;;;;13.60;10.75;;;;;;;12.25;100.00;101949.22;5264764;28;20104;-69
2023/05/02 01:39:45;;;;;;;12.48;9.82;;;;;;;12.44;100.00;101944.25;5267295;28;20028;-69
2023/05/02 01:42:18;;;;;;;12.50;9.23;;;;;;;12.19;100.00;101937.34;5267351;28;20196;-69
2023/05/02 01:44:52;;;;;;;;;;;;;;;12.97;100.00;101954.28;5266896;28;20922;-68
2023/05/02 01:47:25;;;;;;;12.52;9.07;;;;;;;12.24;100.00;101955.44;5266779;28;19942;-69
2023/05/02 01:49:57;;;;;;;13.63;8.73;;;;;;;12.30;100.00;101961.03;5266257;28;20078;-69
2023/05/02 01:52:29;;;;;;;11.57;9.55;;;;;;;12.23;100.00;101946.69;5265669;28;20332;-68
2023/05/02 01:55:01;;;;;;;12.20;9.52;;;;;;;12.23;100.00;101962.44;5267015;28;20028;-69
2023/05/02 01:57:35;;;;;;;11.18;9.05;;;;;;;12.30;100.00;101963.66;5260709;28;20309;-69
2023/05/02 02:00:07;;;;;;;11.25;8.88;;;;;;;12.22;100.00;101960.78;5266107;28;20452;-69
2023/05/02 02:02:42;;;;;;;13.27;9.98;;;;;;;12.32;100.00;101971.47;5266942;28;20043;-69
2023/05/02 02:05:15;;;;;;;12.07;9.40;;;;;;;12.28;100.00;101965.59;5264917;28;20036;-69
2023/05/02 02:07:46;;;;;;;13.35;10.27;;;;;;;12.33;100.00;101966.06;5264100;28;20085;-69
2023/05/02 02:10:18;;;;;;;12.90;10.10;;;;;;;12.28;100.00;101981.34;5265352;28;21162;-69
2023/05/02 02:13:17;;;;;;;15.40;11.70;;;;;;;12.57;100.00;101983.59;5261446;28;20570;-69
2023/05/02 02:15:52;;;;;;;14.10;10.80;;;;;;;12.31;100.00;101981.13;5266036;28;20078;-68
2023/05/02 02:18:25;;;;;;;16.30;11.25;;;;;;;12.27;100.00;101984.91;5267721;28;20031;-69
2023/05/02 02:20:58;;;;;;;16.17;11.38;;;;;;;12.24;100.00;101982.53;5267087;28;20504;-69
2023/05/02 02:23:32;;;;;;;15.90;11.10;;;;;;;12.32;100.00;101987.22;5267197;28;20418;-69
2023/05/02 02:26:06;;;;;;;15.68;12.07;;;;;;;12.20;100.00;101978.47;5262240;28;20067;-69
2023/05/02 02:28:38;;;;;;;13.68;11.13;;;;;;;12.22;100.00;101997.56;5266568;28;20073;-69
2023/05/02 02:31:09;;;;;;;12.82;11.32;;;;;;;12.18;100.00;101996.94;5267571;28;20036;-69
2023/05/02 02:33:41;;;;;;;17.58;12.40;;;;;;;12.15;100.00;101998.97;5262658;28;20034;-69
2023/05/02 02:36:20;;;;;;;17.92;12.95;;;;;;;12.17;100.00;101994.44;5266604;28;20441;-69
2023/05/02 02:39:11;;;;;;;13.40;12.00;;;;;;;12.27;100.00;102005.09;5267030;28;20039;-69
2023/05/02 02:41:51;;;;;;;15.40;12.48;;;;;;;12.16;100.00;101993.63;5263461;28;20025;-69
2023/05/02 02:44:35;;;;;;;15.38;11.50;;;;;;;12.22;100.00;102005.44;5267119;28;20028;-68
2023/05/02 02:47:26;;;;;;;17.02;13.48;;;;;;;12.32;100.00;102000.38;5266872;28;20375;-69
2023/05/02 02:50:10;;;;;;;15.43;12.45;;;;;;;12.09;100.00;101989.75;5264567;28;20339;-69
2023/05/02 02:53:01;;;;;;;14.30;12.02;;;;;;;12.05;100.00;102006.69;5265669;28;20254;-69
2023/05/02 02:55:45;;;;;;;13.98;12.38;;;;;;;12.11;100.00;102013.28;5266794;28;20028;-69
2023/05/02 02:58:42;;;;;;;16.23;12.05;;;;;;;12.31;100.00;102012.66;5265136;28;20043;-68
2023/05/02 03:01:25;;;;;;;14.43;11.93;;;;;;;12.22;100.00;102013.31;5266085;28;20299;-69
2023/05/02 03:03:57;;;;;;;;;;;;;;;12.68;100.00;102023.06;5265738;28;20071;-69
2023/05/02 03:06:28;;;;;;;16.08;12.13;;;;;;;12.13;100.00;102012.22;5262622;28;20305;-69
2023/05/02 03:09:00;;;;;;;13.45;10.13;;;;;;;12.12;100.00;102018.44;5266699;28;20070;-68
2023/05/02 03:11:31;;;;;;;13.75;11.23;;;;;;;12.08;100.00;102027.47;5265135;28;20035;-69
2023/05/02 03:14:03;;;;;;;11.07;9.50;;;;;;;12.14;100.00;102028.81;5263771;28;20021;-69
2023/05/02 03:16:35;;;;;;;12.07;9.73;;;;;;;12.10;100.00;102028.19;5265838;28;20040;-69
2023/05/02 03:19:07;;;;;;;13.43;9.35;;;;;;;12.16;100.00;102034.81;5267585;28;20024;-69
2023/05/02 03:21:38;;;;;;;14.75;10.30;;;;;;;12.13;100.00;102045.53;5262501;28;20029;-69
2023/05/02 03:24:09;;;;;;;12.70;9.45;;;;;;;12.21;100.00;102042.34;5267932;28;20033;-68
2023/05/02 03:26:41;;;;;;;12.32;9.25;;;;;;;12.20;100.00;102046.78;5264854;28;20987;-68
2023/05/02 03:29:15;;;;;;;13.30;9.10;;;;;;;12.18;100.00;102048.66;5267614;28;20398;-68
2023/05/02 03:31:46;;;;;;;13.35;9.23;;;;;;;12.16;100.00;102043.53;5263827;28;20039;-68
2023/05/02 03:34:19;;;;;;;11.88;8.93;;;;;;;12.23;100.00;102049.16;5266104;28;20451;-69
2023/05/02 03:36:50;;;;;;;11.38;8.82;;;;;;;12.24;100.00;102042.97;5265789;28;20040;-68
2023/05/02 03:39:22;;;;;;;12.75;9.38;;;;;;;12.26;100.00;102041.06;5266165;28;20024;-69
2023/05/02 03:41:53;;;;;;;15.15;9.88;;;;;;;12.28;100.00;102047.06;5263768;28;20024;-69
2023/05/02 03:44:24;;;;;;;13.68;9.07;;;;;;;12.29;100.00;102046.09;5266061;28;20441;-69
2023/05/02 03:46:56;;;;;;;12.60;8.82;;;;;;;12.23;100.00;102048.31;5266498;28;20733;-69
2023/05/02 03:49:27;;;;;;;12.55;9.40;;;;;;;12.21;100.00;102048.44;5262904;28;20039;-69
2023/05/02 03:51:58;;;;;;;15.63;9.38;;;;;;;12.21;100.00;102051.06;5264959;28;20020;-69
2023/05/02 03:54:32;;;;;;;13.82;9.60;;;;;;;12.31;100.00;102059.97;5265837;28;20045;-69
2023/05/02 03:57:04;;;;;;;12.65;8.88;;;;;;;12.21;100.00;102063.38;5265934;28;20020;-69
2023/05/02 03:59:40;;;;;;;12.65;9.45;;;;;;;12.21;100.00;102069.47;5265355;28;20031;-69
2023/05/02 04:02:11;;;;;;;11.85;8.05;;;;;;;12.20;100.00;102080.06;5262536;28;20094;-69
2023/05/02 04:04:43;;;;;;;12.85;6.97;;;;;;;12.09;100.00;102065.09;5264620;28;20029;-69
2023/05/02 04:07:18;;;;;;;10.82;6.88;;;;;;;12.17;100.00;102073.25;5262316;28;20032;-69
2023/05/02 04:09:49;;;;;;;10.00;5.50;;;;;;;12.13;100.00;102085.78;5264832;28;20126;-69
2023/05/02 04:12:21;;;;;;;9.77;4.72;;;;;;;11.97;100.00;102081.72;5261157;28;20032;-69
2023/05/02 04:14:52;;;;;;;12.05;5.13;;;;;;;11.92;100.00;102085.50;5265734;28;20021;-69
2023/05/02 04:17:23;;;;;;;8.80;3.92;;;;;;;11.89;100.00;102096.25;5265434;28;20056;-69
2023/05/02 04:19:54;;;;;;;8.68;4.18;;;;;;;11.83;100.00;102096.66;5264064;28;20028;-69
2023/05/02 04:22:26;;;;;;;10.95;4.78;;;;;;;11.83;100.00;102095.78;5263462;28;20513;-69
2023/05/02 04:24:57;;;;;;;9.55;4.43;;;;;;;11.93;100.00;102097.72;5265336;28;20031;-69
2023/05/02 04:27:29;;;;;;;7.22;3.95;;;;;;;11.94;100.00;102106.41;5269661;28;20077;-68
2023/05/02 04:30:00;;;;;;;10.55;5.20;;;;;;;12.01;100.00;102107.66;5266348;28;20451;-69
2023/05/02 04:32:32;;;;;;;11.23;5.20;;;;;;;11.93;100.00;102116.09;5267843;28;20028;-69
2023/05/02 04:35:04;;;;;;;11.90;4.95;;;;;;;11.89;100.00;102126.88;5267802;28;20033;-69
2023/05/02 04:37:36;;;;;;;10.85;4.55;;;;;;;11.90;100.00;102128.59;5266151;28;20048;-69
2023/05/02 04:40:07;;;;;;;12.00;4.82;;;;;;;11.78;100.00;102134.66;5266372;28;20119;-69
2023/05/02 04:42:39;;;;;;;7.80;3.00;;;;;;;11.80;100.00;102141.47;5268980;28;20490;-69
2023/05/02 04:45:10;;;;;;;8.32;2.15;;;;;;;11.75;100.00;102140.13;5269061;28;20058;-69
2023/05/02 04:47:41;;;;;;;5.80;1.80;;;;;;;11.77;100.00;102151.34;5265828;28;20031;-69
2023/05/02 04:50:13;;;;;;;5.70;1.83;;;;;;;11.72;100.00;102162.19;5266755;28;20035;-69
2023/05/02 04:52:44;;;;;;;6.70;1.90;;;;;;;11.59;100.00;102163.94;5269764;28;20024;-69
2023/05/02 04:55:15;;;;;;;9.40;2.25;;;;;;;11.75;100.00;102177.72;5266633;28;20032;-68
2023/05/02 04:57:47;;;;;;;7.00;1.70;;;;;;;11.76;100.00;102173.31;5266524;28;20183;-69
2023/05/02 05:00:18;;;;;;;8.00;2.33;;;;;;;11.79;100.00;102167.84;5266722;28;20283;-69
2023/05/02 05:02:49;;;;;;;6.07;1.85;;;;;;;11.85;100.00;102170.06;5268069;28;20536;-69
2023/05/02 05:05:21;;;;;;;4.60;1.70;;;;;;;11.82;100.00;102180.75;5266248;28;20378;-68
2023/05/02 05:07:52;;;;;;;7.65;2.22;;;;;;;11.79;100.00;102189.69;5263176;28;20393;-69
2023/05/02 05:10:23;;;;;;;5.45;1.80;;;;;;;11.57;100.00;102186.84;5262989;28;20104;-69
2023/05/02 05:12:55;;;;;;;5.78;1.60;;;;;;;11.70;100.00;102192.94;5260175;28;20532;-69
2023/05/02 05:15:26;;;;;;;6.63;1.98;;;;;;;11.68;100.00;102197.47;5261057;28;20140;-69
2023/05/02 05:17:57;;;;;;;5.18;2.20;;;;;;;11.53;100.00;102201.97;5265633;28;20032;-69
2023/05/02 05:20:29;;;;;;;7.32;2.00;;;;;;;11.51;100.00;102205.63;5267453;28;20033;-69
2023/05/02 05:23:00;;;;;;;8.93;2.00;;;;;;;11.50;100.00;102211.81;5256106;28;20056;-69
2023/05/02 05:25:32;;;;;;;5.90;2.20;;;;;;;11.49;100.00;102212.78;5268120;28;20032;-69
2023/05/02 05:28:04;;;;;;;7.17;1.83;;;;;;;11.62;100.00;102213.63;5249416;28;21184;-68
2023/05/02 05:30:35;;;;;;;8.55;2.00;;;;;;;11.76;100.00;102218.78;5242810;28;20064;-69
2023/05/02 05:33:06;;;;;;;6.30;1.90;;;;;;;11.75;100.00;102218.91;5244563;28;20592;-69
2023/05/02 05:35:37;;;;;;;6.85;1.75;;;;;;;11.69;100.00;102220.13;5269806;28;20036;-69
2023/05/02 05:38:09;;;;;;;5.88;1.90;;;;;;;11.80;100.00;102222.88;5266409;28;20233;-69
2023/05/02 05:40:40;;;;;;;8.88;2.13;;;;;;;11.89;100.00;102206.53;5267081;28;20056;-69
2023/05/02 05:43:11;;;;;;;4.82;2.22;;;;;;;11.91;100.00;102223.03;5259375;28;20631;-68
2023/05/02 05:45:43;;;;;;;8.70;2.35;;;;;;;11.97;100.00;102221.78;5264125;28;20039;-69
2023/05/02 05:48:14;;;;;;;8.82;3.03;;;;;;;11.93;100.00;102225.53;5265527;28;20051;-69
2023/05/02 05:50:45;;;;;;;6.47;2.25;;;;;;;11.97;100.00;102228.78;5266005;28;20665;-69
2023/05/02 05:53:18;;;;;;;8.48;2.20;;;;;;;11.99;100.00;102233.00;5266546;28;20984;-69
2023/05/02 05:55:49;;;;;;;6.18;2.28;;;;;;;12.05;100.00;102232.59;5268383;28;20052;-69
2023/05/02 05:58:20;;;;;;;6.18;1.85;;;;;;;11.99;97.12;102234.78;5267529;28;20386;-69
2023/05/02 06:00:52;;;;;;;3.72;1.50;;;;;;;11.97;96.85;102244.53;5265059;28;20074;-69
2023/05/02 06:03:23;;;;;;;6.18;1.95;;;;;;;11.96;95.29;102240.25;5267309;28;20031;-69
2023/05/02 06:05:54;;;;;;;5.82;1.33;;;;;;;11.99;94.59;102250.53;5263975;28;20024;-69
2023/05/02 06:08:25;;;;;;;4.88;1.65;;;;;;;12.08;92.01;102252.53;5267180;28;20166;-69
2023/05/02 06:10:57;;;;;;;4.13;1.50;;;;;;;12.14;94.93;102258.22;5265844;28;20037;-69
2023/05/02 06:13:28;;;;;;;4.15;1.50;;;;;;;12.31;93.88;102270.19;5238631;28;20280;-69
2023/05/02 06:16:01;;;;;;;5.55;2.08;;;;;;;12.36;91.05;102267.25;5247495;28;20032;-69
2023/05/02 06:18:32;;;;;;;5.68;1.30;;;;;;;12.23;92.55;102264.59;5262370;28;20033;-69
2023/05/02 06:21:05;;;;;;;6.05;1.83;;;;;;;12.30;90.81;102270.28;5266161;28;20028;-70
2023/05/02 06:23:36;;;;;;;5.97;1.43;;;;;;;12.32;86.74;102274.50;5262117;28;20482;-69
2023/05/02 06:26:08;;;;;;;4.72;1.65;;;;;;;12.37;85.68;102276.81;5262804;28;20040;-70
2023/05/02 06:28:40;;;;;;;5.33;1.93;;;;;;;12.34;86.25;102272.59;5263545;28;20016;-70
2023/05/02 06:31:11;;;;;;;7.38;1.80;;;;;;;12.41;86.73;102283.53;5260383;28;20032;-69
2023/05/02 06:33:42;;;;;;;10.23;1.90;;;;;;;12.59;86.11;102284.03;5268171;28;20082;-69
2023/05/02 06:36:14;;;;;;;5.75;1.85;;;;;;;12.76;85.15;102288.09;5256048;28;20119;-70
2023/05/02 06:38:46;;;;;;;8.93;1.85;;;;;;;12.72;81.49;102295.34;5262054;28;20416;-69
2023/05/02 06:41:19;;;;;;;9.95;1.83;;;;;;;12.68;83.14;102304.41;5262229;28;20051;-70
2023/05/02 06:43:50;;;;;;;6.47;2.03;;;;;;;12.64;83.60;102303.78;5264396;28;20127;-70
2023/05/02 06:46:22;;;;;;;5.57;1.95;;;;;;;12.67;83.64;102318.50;5260624;28;20053;-69
2023/05/02 06:48:53;;;;;;;6.78;2.15;;;;;;;12.83;84.52;102329.63;5256017;28;20035;-70
2023/05/02 06:51:24;;;;;;;10.77;2.20;;;;;;;12.79;84.90;102322.91;5261164;28;20075;-69
2023/05/02 06:53:56;;;;;;;6.93;2.25;;;;;;;12.91;85.22;102321.19;5263979;28;20466;-70
2023/05/02 06:56:27;;;;;;;6.55;2.15;;;;;;;12.83;85.41;102316.47;5263544;28;20037;-69
2023/05/02 06:58:58;;;;;;;8.85;1.90;;;;;;;12.86;83.16;102331.22;5264336;28;20485;-70
2023/05/02 07:01:30;;;;;;;9.63;2.38;;;;;;;12.95;85.34;102329.69;5261202;28;20032;-69
2023/05/02 07:04:04;;;;;;;10.80;3.38;;;;;;;12.97;83.12;102333.09;5255732;28;20025;-70
2023/05/02 07:06:36;;;;;;;7.18;1.90;;;;;;;12.84;82.26;102340.97;5259258;28;20044;-70
2023/05/02 07:09:07;;;;;;;8.05;2.10;;;;;;;12.80;79.72;102347.41;5260716;28;20310;-70
2023/05/02 07:11:38;;;;;;;7.70;2.05;;;;;;;12.79;80.59;102348.38;5259059;28;20055;-69
2023/05/02 07:14:09;;;;;;;8.27;2.50;;;;;;;12.85;81.51;102350.56;5258305;28;20033;-70
2023/05/02 07:16:41;;;;;;;8.32;2.45;;;;;;;12.88;82.33;102353.00;5263314;28;20353;-70
2023/05/02 07:19:12;;;;;;;8.80;2.70;;;;;;;12.88;78.80;102353.84;5262814;28;20512;-69
2023/05/02 07:21:43;;;;;;;8.43;2.63;;;;;;;12.88;80.01;102364.34;5258330;28;20028;-69
2023/05/02 07:24:15;;;;;;;8.35;2.90;;;;;;;12.85;80.44;102369.00;5265023;28;20032;-69
2023/05/02 07:26:46;;;;;;;7.30;2.50;;;;;;;12.79;80.92;102364.97;5262699;28;20036;-69
2023/05/02 07:29:17;;;;;;;7.72;2.95;;;;;;;12.99;83.46;102371.47;5258708;28;20135;-69
2023/05/02 07:31:49;;;;;;;13.90;2.92;;;;;;;12.87;82.03;102369.69;5263305;28;20020;-69
2023/05/02 07:34:20;;;;;;;9.07;2.17;;;;;;;12.81;81.78;102375.41;5262166;28;20024;-70
2023/05/02 07:36:51;;;;;;;7.38;2.40;;;;;;;12.74;81.33;102382.03;5255758;28;20254;-69
2023/05/02 07:39:24;;;;;;;8.05;2.67;;;;;;;12.90;82.28;102377.38;5259749;28;20028;-69
2023/05/02 07:41:55;;;;;;;9.30;2.10;;;;;;;13.17;81.25;102379.84;5259715;28;20024;-70
2023/05/02 07:44:27;;;;;;;10.15;2.90;;;;;;;13.41;79.71;102385.19;5257613;28;20167;-69
2023/05/02 07:46:58;;;;;;;8.20;2.70;;;;;;;13.54;77.50;102383.34;5261928;28;20036;-70
2023/05/02 07:49:30;;;;;;;9.38;2.58;;;;;;;13.59;73.29;102377.72;5264029;28;20402;-70
2023/05/02 07:52:01;;;;;;;9.52;3.10;;;;;;;13.59;72.10;102393.53;5262132;28;20055;-70
2023/05/02 07:54:32;;;;;;;11.40;2.90;;;;;;;13.36;74.53;102390.78;5255834;28;20321;-69
2023/05/02 07:57:07;;;;;;;9.93;2.60;;;;;;;13.35;73.88;102388.25;5259354;28;20024;-70
2023/05/02 07:59:38;;;;;;;9.60;2.55;;;;;;;13.26;73.36;102383.63;5260024;28;20424;-70
2023/05/02 08:02:11;;;;;;;8.05;2.65;;;;;;;13.15;76.56;102387.03;5258439;28;20078;-70
2023/05/02 08:04:43;;;;;;;7.57;2.60;;;;;;;13.10;75.95;102395.22;5263813;28;20436;-69
2023/05/02 08:07:15;;;;;;;9.68;2.22;;;;;;;13.04;78.22;102400.09;5262358;28;20130;-69
2023/05/02 08:09:46;;;;;;;11.75;2.90;;;;;;;13.00;76.54;102409.16;5257992;28;20024;-69
2023/05/02 08:12:17;;;;;;;12.32;3.08;;;;;;;12.81;74.47;102399.91;5260534;28;20060;-70
2023/05/02 08:14:48;;;;;;;9.40;2.60;;;;;;;12.88;74.34;102413.50;5262965;28;20425;-69
2023/05/02 08:17:20;;;;;;;10.88;2.50;;;;;;;12.79;68.31;102422.84;5261759;28;20032;-70
2023/05/02 08:19:51;;;;;;;8.15;2.42;;;;;;;12.63;68.35;102417.81;5260995;28;20131;-70
2023/05/02 08:22:23;;;;;;;7.25;2.67;;;;;;;12.55;68.88;102417.47;5260496;28;20020;-70
2023/05/02 08:24:54;;;;;;;7.53;2.70;;;;;;;12.58;68.40;102426.97;5261550;28;20155;-70
2023/05/02 08:27:25;;;;;;;6.45;2.10;;;;;;;12.51;67.43;102426.53;5261224;28;20537;-69
2023/05/02 08:29:57;;;;;;;7.47;2.80;;;;;;;12.59;69.12;102434.72;5258186;28;20054;-69
2023/05/02 08:32:28;;;;;;;9.65;2.67;;;;;;;12.61;67.58;102439.88;5263521;28;20511;-69
2023/05/02 08:35:00;;;;;;;6.88;2.25;;;;;;;12.70;66.98;102436.63;5260781;28;20627;-69
2023/05/02 08:37:31;;;;;;;6.13;2.33;;;;;;;12.82;67.83;102448.94;5260941;28;20059;-69
2023/05/02 08:40:03;;;;;;;7.13;2.30;;;;;;;12.99;67.43;102450.38;5260548;28;20556;-69
2023/05/02 08:42:34;;;;;;;6.53;1.90;;;;;;;13.12;65.69;102455.66;5261726;28;20322;-69
2023/05/02 08:45:07;;;;;;;6.85;1.63;;;;;;;13.22;64.67;102450.56;5258120;28;20111;-69
2023/05/02 08:47:42;;;;;;;8.40;2.47;;;;;;;13.38;66.69;102452.06;5260633;28;20531;-69
2023/05/02 08:50:16;;;;;;;6.85;2.10;;;;;;;13.36;65.71;102450.47;5260391;28;20040;-69
2023/05/02 08:52:50;;;;;;;10.48;2.85;;;;;;;13.30;63.74;102454.41;5261969;28;20510;-69
2023/05/02 08:55:26;;;;;;;5.63;1.90;;;;;;;13.67;66.09;102461.44;5262457;28;20348;-70
2023/05/02 08:57:58;;;;;;;7.47;2.40;;;;;;;13.56;60.21;102457.81;5260448;28;20501;-70
2023/05/02 09:00:30;;;;;;;6.07;2.45;;;;;;;13.69;60.99;102462.19;5260748;28;20111;-70
2023/05/02 09:03:11;;;;;;;8.45;2.72;;;;;;;13.96;61.54;102460.19;5250831;28;20032;-69
2023/05/02 09:05:49;;;;;;;6.03;2.28;;;;;;;14.07;62.72;102464.66;5259142;28;20039;-69
2023/05/02 09:08:22;;;;;;;6.88;2.15;;;;;;;13.98;57.57;102462.69;5262182;28;20035;-70
2023/05/02 09:10:54;;;;;;;6.35;2.88;;;;;;;14.07;56.79;102476.03;5259855;28;20063;-70
2023/05/02 09:13:42;;;;;;;8.57;2.45;;;;;;;14.34;58.79;102462.59;5261576;28;20581;-69
2023/05/02 09:16:21;;;;;;;6.18;2.35;;;;;;;14.40;56.42;102468.38;5265760;28;20063;-70
2023/05/02 09:18:54;;;;;;;6.60;1.63;;;;;;;14.68;50.97;102469.78;5265536;28;20024;-70
2023/05/02 09:21:36;;;;;;;7.72;2.22;;;;;;;15.36;53.40;102474.16;5262869;28;20036;-70
2023/05/02 09:24:18;;;;;;;4.45;1.83;;;;;;;15.66;51.58;102473.53;5263943;28;20064;-70
2023/05/02 09:26:58;;;;;;;8.80;2.28;;;;;;;15.58;52.02;102471.47;5267669;28;20043;-70
2023/05/02 09:29:34;;;;;;;7.05;2.30;;;;;;;15.25;51.02;102482.91;5256007;28;20539;-70
2023/05/02 09:32:05;;;;;;;5.57;2.05;;;;;;;15.29;51.76;102476.41;5263789;28;20039;-70
2023/05/02 09:34:38;;;;;;;7.50;2.20;;;;;;;15.01;49.40;102475.13;5265599;28;20041;-70
2023/05/02 09:37:10;;;;;;;5.50;2.27;;;;;;;14.84;50.79;102480.84;5262457;28;20448;-70
2023/05/02 09:40:08;;;;;;;6.40;2.00;;;;;;;15.09;53.44;102487.72;5260258;28;20296;-70
2023/05/02 09:42:39;;;;;;;5.25;1.75;;;;;;;14.73;52.89;102481.66;5266876;28;20036;-70
2023/05/02 09:45:24;;;;;;;7.38;1.80;;;;;;;14.95;51.46;102493.22;5265503;28;20028;-69
2023/05/02 09:48:01;;;;;;;5.55;1.60;;;;;;;14.81;51.57;102495.13;5257652;28;20028;-70
2023/05/02 09:50:34;;;;;;;6.45;1.85;;;;;;;14.64;50.12;102478.91;5263228;28;20043;-70
2023/05/02 09:53:10;;;;;;;7.18;2.80;;;;;;;14.94;51.35;102502.09;5259465;28;20079;-70
2023/05/02 09:55:42;;;;;;;5.28;2.17;;;;;;;15.22;50.67;102498.16;5263511;28;20039;-70
2023/05/02 09:58:21;;;;;;;5.45;1.77;;;;;;;15.49;49.98;102503.06;5266449;28;20470;-70
2023/05/02 10:00:53;;;;;;;4.72;1.80;;;;;;;15.29;50.58;102497.53;5263859;28;20481;-70
2023/05/02 10:03:27;;;;;;;7.28;2.10;;;;;;;15.19;49.74;102504.53;5258962;28;20031;-70
2023/05/02 10:05:58;;;;;;;6.25;2.03;;;;;;;15.21;52.24;102505.22;5266119;28;20437;-69
2023/05/02 10:08:32;;;;;;;7.82;2.70;;;;;;;15.59;50.69;102504.00;5265306;28;20598;-70
2023/05/02 10:11:07;;;;;;;8.23;2.60;;;;;;;16.10;53.14;102497.31;5265017;28;20036;-70
2023/05/02 10:13:41;;;;;;;6.13;2.10;;;;;;;16.18;47.51;102508.13;5264380;28;20025;-70
2023/05/02 10:16:21;;;;;;;6.03;2.10;;;;;;;16.50;50.48;102511.56;5263005;28;20060;-70
2023/05/02 10:19:07;;;;;;;6.68;2.10;;;;;;;16.43;48.66;102506.91;5260579;28;20642;-70
2023/05/02 10:21:41;;;;;;;6.95;2.60;;;;;;;15.97;46.46;102508.88;5263931;28;20120;-69
2023/05/02 10:24:14;;;;;;;6.03;2.22;;;;;;;16.02;48.13;102509.38;5263768;28;20036;-70
2023/05/02 10:26:47;;;;;;;8.73;2.13;;;;;;;16.07;46.41;102510.78;5265822;28;20029;-70
2023/05/02 10:29:19;;;;;;;5.47;2.75;;;;;;;15.95;48.71;102513.47;5261167;28;20111;-69
2023/05/02 10:31:51;;;;;;;7.40;2.30;;;;;;;15.73;46.68;102503.78;5265850;28;20020;-70
2023/05/02 10:34:22;;;;;;;9.00;3.25;;;;;;;15.51;48.94;102524.91;5266239;28;20497;-70
2023/05/02 10:36:55;;;;;;;9.00;3.03;;;;;;;15.46;49.14;102532.38;5267894;28;20047;-70
2023/05/02 10:39:27;;;;;;;5.72;2.08;;;;;;;15.53;50.60;102533.53;5267326;28;20028;-70
2023/05/02 10:42:01;;;;;;;9.10;2.37;;;;;;;15.48;48.12;102522.50;5266680;28;20394;-70
2023/05/02 10:44:34;;;;;;;6.05;2.22;;;;;;;15.61;49.07;102523.25;5262942;28;20683;-70
2023/05/02 10:47:18;;;;;;;6.50;2.28;;;;;;;15.79;48.66;102523.59;5264021;28;20036;-69
2023/05/02 10:49:53;;;;;;;5.80;1.98;;;;;;;15.59;49.14;102525.16;5262714;28;20037;-70
2023/05/02 10:52:27;;;;;;;5.00;2.25;;;;;;;15.67;47.59;102525.41;5262527;28;20090;-70
2023/05/02 10:55:19;;;;;;;9.00;2.78;;;;;;;16.14;48.84;102518.09;5263440;28;20141;-70
2023/05/02 10:57:57;;;;;;;5.57;2.20;;;;;;;16.13;47.28;102528.78;5265524;28;20097;-69
2023/05/02 11:00:33;;;;;;;5.53;2.30;;;;;;;15.98;45.82;102528.22;5260879;28;20311;-70
2023/05/02 11:03:05;;;;;;;8.02;2.22;;;;;;;15.74;45.87;102537.16;5264263;28;20791;-70
2023/05/02 11:06:06;;;;;;;4.75;2.10;;;;;;;16.15;46.11;102532.16;5264965;28;20342;-70
2023/05/02 11:08:37;;;;;;;6.40;2.65;;;;;;;15.70;44.24;102538.38;5262757;28;20032;-69
2023/05/02 11:11:38;;;;;;;6.28;2.08;;;;;;;16.03;44.17;102537.47;5266715;28;20028;-70
2023/05/02 11:14:10;;;;;;;6.68;2.08;;;;;;;16.08;45.37;102537.09;5264584;28;20052;-70
2023/05/02 11:17:00;;;;;;;5.30;2.08;;;;;;;16.59;43.78;102539.03;5265744;28;20125;-70
2023/05/02 11:19:37;;;;;;;4.20;1.90;;;;;;;16.59;43.42;102528.47;5263920;28;20486;-69
2023/05/02 11:22:31;;;;;;;6.13;1.75;;;;;;;16.71;41.81;102524.81;5265696;28;20024;-70
2023/05/02 11:25:04;;;;;;;8.15;2.17;;;;;;;16.26;42.01;102540.06;5264141;28;20032;-70
2023/05/02 11:27:40;;;;;;;12.55;2.45;;;;;;;16.24;43.92;102541.97;5261900;28;20120;-70
2023/05/02 11:30:12;;;;;;;6.30;2.42;;;;;;;16.03;46.00;102531.34;5258210;28;20520;-70
2023/05/02 11:32:48;;;;;;;6.67;2.27;;;;;;;16.26;43.99;102538.25;5264169;28;20035;-70
2023/05/02 11:35:25;;;;;;;5.35;2.60;;;;;;;16.30;44.67;102531.72;5262669;28;20561;-70
2023/05/02 11:37:58;;;;;;;6.78;2.35;;;;;;;16.43;43.15;102531.53;5263513;28;20020;-70
2023/05/02 11:40:30;;;;;;;5.55;2.30;;;;;;;16.83;43.20;102530.91;5261494;28;20809;-70
2023/05/02 11:43:14;;;;;;;7.85;2.60;;;;;;;17.37;43.86;102526.28;5262931;28;20039;-71
2023/05/02 11:45:46;;;;;;;6.82;2.30;;;;;;;17.09;42.53;102547.22;5265115;28;20107;-71
2023/05/02 11:48:20;;;;;;;7.40;1.88;;;;;;;16.77;40.60;102534.88;5262273;28;20398;-70